sensor_id;sensor_type;location;lat;lon;timestamp;temperature;humidity
18948;DHT22;9607;51.600;7.558;2022-09-12T00:00:09;12.10;99.90
18948;DHT22;9607;51.600;7.558;2022-09-12T00:02:37;12.10;99.90
18948;DHT22;9607;51.600;7.558;2022-09-12T00:05:04;12.10;99.90
18948;DHT22;9607;51.600;7.558;2022-09-12T00:07:33;12.00;99.90
18948;DHT22;9607;51.600;7.558;2022-09-12T00:10:00;12.00;99.90
18948;DHT22;9607;51.600;7.558;2022-09-12T00:12:27;12.00;99.90
18948;DHT22;9607;51.600;7.558;2022-09-12T00:14:56;12.00;99.90
18948;DHT22;9607;51.600;7.558;2022-09-12T00:17:23;12.00;99.90
18948;DHT22;9607;51.600;7.558;2022-09-12T00:19:50;12.00;99.90
18948;DHT22;9607;51.600;7.558;2022-09-12T00:22:17;11.90;99.90
18948;DHT22;9607;51.600;7.558;2022-09-12T00:24:45;11.90;99.90
18948;DHT22;9607;51.600;7.558;2022-09-12T00:27:12;11.90;99.90
18948;DHT22;9607;51.600;7.558;2022-09-12T00:29:40;11.90;99.90
18948;DHT22;9607;51.600;7.558;2022-09-12T00:32:07;11.80;99.90
18948;DHT22;9607;51.600;7.558;2022-09-12T00:34:34;11.80;99.90
18948;DHT22;9607;51.600;7.558;2022-09-12T00:37:02;11.80;99.90
18948;DHT22;9607;51.600;7.558;2022-09-12T00:39:32;11.80;99.90
18948;DHT22;9607;51.600;7.558;2022-09-12T00:42:00;11.70;99.90
18948;DHT22;9607;51.600;7.558;2022-09-12T00:44:46;11.80;99.90
18948;DHT22;9607;51.600;7.558;2022-09-12T00:47:17;11.70;99.90
18948;DHT22;9607;51.600;7.558;2022-09-12T00:49:47;11.70;99.90
18948;DHT22;9607;51.600;7.558;2022-09-12T00:52:18;11.70;99.90
18948;DHT22;9607;51.600;7.558;2022-09-12T00:54:50;11.70;99.90
18948;DHT22;9607;51.600;7.558;2022-09-12T00:57:20;11.70;99.90
18948;DHT22;9607;51.600;7.558;2022-09-12T00:59:52;11.60;99.90
18948;DHT22;9607;51.600;7.558;2022-09-12T01:02:20;11.60;99.90
18948;DHT22;9607;51.600;7.558;2022-09-12T01:04:47;11.60;99.90
18948;DHT22;9607;51.600;7.558;2022-09-12T01:07:15;11.60;99.90
18948;DHT22;9607;51.600;7.558;2022-09-12T01:09:43;11.60;99.90
18948;DHT22;9607;51.600;7.558;2022-09-12T01:12:11;11.50;99.90
18948;DHT22;9607;51.600;7.558;2022-09-12T01:14:40;11.50;99.90
18948;DHT22;9607;51.600;7.558;2022-09-12T01:17:11;11.50;99.90
18948;DHT22;9607;51.600;7.558;2022-09-12T01:20:07;11.50;99.90
18948;DHT22;9607;51.600;7.558;2022-09-12T01:23:10;11.40;99.90
18948;DHT22;9607;51.600;7.558;2022-09-12T01:26:02;11.50;99.90
18948;DHT22;9607;51.600;7.558;2022-09-12T01:28:52;11.40;99.90
18948;DHT22;9607;51.600;7.558;2022-09-12T01:31:25;11.40;99.90
18948;DHT22;9607;51.600;7.558;2022-09-12T01:34:03;11.40;99.90
18948;DHT22;9607;51.600;7.558;2022-09-12T01:36:41;11.40;99.90
18948;DHT22;9607;51.600;7.558;2022-09-12T01:39:15;11.40;99.90
18948;DHT22;9607;51.600;7.558;2022-09-12T01:41:52;11.40;99.90
18948;DHT22;9607;51.600;7.558;2022-09-12T01:44:25;11.40;99.90
18948;DHT22;9607;51.600;7.558;2022-09-12T01:47:04;11.40;99.90
18948;DHT22;9607;51.600;7.558;2022-09-12T01:49:38;11.40;99.90
18948;DHT22;9607;51.600;7.558;2022-09-12T01:52:12;11.40;99.90
18948;DHT22;9607;51.600;7.558;2022-09-12T01:54:45;11.40;99.90
18948;DHT22;9607;51.600;7.558;2022-09-12T01:57:18;11.40;99.90
18948;DHT22;9607;51.600;7.558;2022-09-12T01:59:48;11.40;99.90
18948;DHT22;9607;51.600;7.558;2022-09-12T02:02:21;11.30;99.90
18948;DHT22;9607;51.600;7.558;2022-09-12T02:04:56;11.30;99.90
18948;DHT22;9607;51.600;7.558;2022-09-12T02:07:26;11.30;99.90
18948;DHT22;9607;51.600;7.558;2022-09-12T02:09:59;11.30;99.90
18948;DHT22;9607;51.600;7.558;2022-09-12T02:12:38;11.20;99.90
18948;DHT22;9607;51.600;7.558;2022-09-12T02:15:08;11.20;99.90
18948;DHT22;9607;51.600;7.558;2022-09-12T02:17:38;11.20;99.90
18948;DHT22;9607;51.600;7.558;2022-09-12T02:20:11;11.20;99.90
18948;DHT22;9607;51.600;7.558;2022-09-12T02:22:41;11.20;99.90
18948;DHT22;9607;51.600;7.558;2022-09-12T02:25:11;11.10;99.90
18948;DHT22;9607;51.600;7.558;2022-09-12T02:27:41;11.10;99.90
18948;DHT22;9607;51.600;7.558;2022-09-12T02:30:11;11.10;99.90
18948;DHT22;9607;51.600;7.558;2022-09-12T02:32:48;11.10;99.90
18948;DHT22;9607;51.600;7.558;2022-09-12T02:35:28;11.00;99.90
18948;DHT22;9607;51.600;7.558;2022-09-12T02:38:03;11.10;99.90
18948;DHT22;9607;51.600;7.558;2022-09-12T02:40:32;11.00;99.90
18948;DHT22;9607;51.600;7.558;2022-09-12T02:43:00;11.00;99.90
18948;DHT22;9607;51.600;7.558;2022-09-12T02:45:28;11.00;99.90
18948;DHT22;9607;51.600;7.558;2022-09-12T02:48:01;11.00;99.90
18948;DHT22;9607;51.600;7.558;2022-09-12T02:50:30;11.00;99.90
18948;DHT22;9607;51.600;7.558;2022-09-12T02:52:57;11.00;99.90
18948;DHT22;9607;51.600;7.558;2022-09-12T02:55:30;11.00;99.90
18948;DHT22;9607;51.600;7.558;2022-09-12T02:57:57;11.00;99.90
18948;DHT22;9607;51.600;7.558;2022-09-12T03:00:24;11.00;99.90
18948;DHT22;9607;51.600;7.558;2022-09-12T03:03:12;11.00;99.90
18948;DHT22;9607;51.600;7.558;2022-09-12T03:05:49;10.90;99.90
18948;DHT22;9607;51.600;7.558;2022-09-12T03:08:41;10.90;99.90
18948;DHT22;9607;51.600;7.558;2022-09-12T03:14:16;10.90;99.90
18948;DHT22;9607;51.600;7.558;2022-09-12T03:16:55;10.80;99.90
18948;DHT22;9607;51.600;7.558;2022-09-12T03:19:34;10.80;99.90
18948;DHT22;9607;51.600;7.558;2022-09-12T03:22:12;10.80;99.90
18948;DHT22;9607;51.600;7.558;2022-09-12T03:24:47;10.80;99.90
18948;DHT22;9607;51.600;7.558;2022-09-12T03:27:20;10.80;99.90
18948;DHT22;9607;51.600;7.558;2022-09-12T03:29:50;10.80;99.90
18948;DHT22;9607;51.600;7.558;2022-09-12T03:32:18;10.80;99.90
18948;DHT22;9607;51.600;7.558;2022-09-12T03:34:46;10.80;99.90
18948;DHT22;9607;51.600;7.558;2022-09-12T03:37:13;10.70;99.90
18948;DHT22;9607;51.600;7.558;2022-09-12T03:39:40;10.70;99.90
18948;DHT22;9607;51.600;7.558;2022-09-12T03:42:07;10.70;99.90
18948;DHT22;9607;51.600;7.558;2022-09-12T03:44:34;10.70;99.90
18948;DHT22;9607;51.600;7.558;2022-09-12T03:47:01;10.70;99.90
18948;DHT22;9607;51.600;7.558;2022-09-12T03:49:28;10.70;99.90
18948;DHT22;9607;51.600;7.558;2022-09-12T03:51:56;10.70;99.90
18948;DHT22;9607;51.600;7.558;2022-09-12T03:54:23;10.70;99.90
18948;DHT22;9607;51.600;7.558;2022-09-12T03:56:50;10.70;99.90
18948;DHT22;9607;51.600;7.558;2022-09-12T03:59:17;10.70;99.90
18948;DHT22;9607;51.600;7.558;2022-09-12T04:01:44;10.70;99.90
18948;DHT22;9607;51.600;7.558;2022-09-12T04:04:10;10.60;99.90
18948;DHT22;9607;51.600;7.558;2022-09-12T04:06:37;10.60;99.90
18948;DHT22;9607;51.600;7.558;2022-09-12T04:09:06;10.60;99.90
18948;DHT22;9607;51.600;7.558;2022-09-12T04:11:33;10.60;99.90
18948;DHT22;9607;51.600;7.558;2022-09-12T04:14:00;10.60;99.90
18948;DHT22;9607;51.600;7.558;2022-09-12T04:16:27;10.60;99.90
18948;DHT22;9607;51.600;7.558;2022-09-12T04:18:54;10.60;99.90
18948;DHT22;9607;51.600;7.558;2022-09-12T04:21:21;10.50;99.90
18948;DHT22;9607;51.600;7.558;2022-09-12T04:23:47;10.50;99.90
18948;DHT22;9607;51.600;7.558;2022-09-12T04:26:17;10.50;99.90
18948;DHT22;9607;51.600;7.558;2022-09-12T04:28:45;10.50;99.90
18948;DHT22;9607;51.600;7.558;2022-09-12T04:31:14;10.50;99.90
18948;DHT22;9607;51.600;7.558;2022-09-12T04:33:42;10.50;99.90
18948;DHT22;9607;51.600;7.558;2022-09-12T04:36:11;10.50;99.90
18948;DHT22;9607;51.600;7.558;2022-09-12T04:38:41;10.50;99.90
18948;DHT22;9607;51.600;7.558;2022-09-12T04:41:11;10.50;99.90
18948;DHT22;9607;51.600;7.558;2022-09-12T04:43:40;10.50;99.90
18948;DHT22;9607;51.600;7.558;2022-09-12T04:46:08;10.50;99.90
18948;DHT22;9607;51.600;7.558;2022-09-12T04:48:36;10.50;99.90
18948;DHT22;9607;51.600;7.558;2022-09-12T04:51:07;10.40;99.90
18948;DHT22;9607;51.600;7.558;2022-09-12T04:53:37;10.40;99.90
18948;DHT22;9607;51.600;7.558;2022-09-12T04:56:06;10.50;99.90
18948;DHT22;9607;51.600;7.558;2022-09-12T04:58:34;10.50;99.90
18948;DHT22;9607;51.600;7.558;2022-09-12T05:01:08;10.50;99.90
18948;DHT22;9607;51.600;7.558;2022-09-12T05:03:35;10.50;99.90
18948;DHT22;9607;51.600;7.558;2022-09-12T05:06:05;10.60;99.90
18948;DHT22;9607;51.600;7.558;2022-09-12T05:08:32;10.60;99.90
18948;DHT22;9607;51.600;7.558;2022-09-12T05:11:01;10.60;99.90
18948;DHT22;9607;51.600;7.558;2022-09-12T05:13:30;10.60;99.90
18948;DHT22;9607;51.600;7.558;2022-09-12T05:15:59;10.60;99.90
18948;DHT22;9607;51.600;7.558;2022-09-12T05:18:29;10.60;99.90
18948;DHT22;9607;51.600;7.558;2022-09-12T05:20:58;10.60;99.90
18948;DHT22;9607;51.600;7.558;2022-09-12T05:23:26;10.60;99.90
18948;DHT22;9607;51.600;7.558;2022-09-12T05:25:55;10.60;99.90
18948;DHT22;9607;51.600;7.558;2022-09-12T05:28:24;10.70;99.90
18948;DHT22;9607;51.600;7.558;2022-09-12T05:30:59;10.70;99.90
18948;DHT22;9607;51.600;7.558;2022-09-12T05:33:27;10.80;99.90
18948;DHT22;9607;51.600;7.558;2022-09-12T05:35:54;10.80;99.90
18948;DHT22;9607;51.600;7.558;2022-09-12T05:38:21;10.80;99.90
18948;DHT22;9607;51.600;7.558;2022-09-12T05:40:49;10.90;99.90
18948;DHT22;9607;51.600;7.558;2022-09-12T05:43:16;11.00;99.90
18948;DHT22;9607;51.600;7.558;2022-09-12T05:45:44;11.10;99.90
18948;DHT22;9607;51.600;7.558;2022-09-12T05:48:11;11.10;99.90
18948;DHT22;9607;51.600;7.558;2022-09-12T05:50:40;11.20;99.90
18948;DHT22;9607;51.600;7.558;2022-09-12T05:53:08;11.30;99.90
18948;DHT22;9607;51.600;7.558;2022-09-12T05:55:35;11.30;99.90
18948;DHT22;9607;51.600;7.558;2022-09-12T05:58:02;11.40;99.90
18948;DHT22;9607;51.600;7.558;2022-09-12T06:00:29;11.40;99.90
18948;DHT22;9607;51.600;7.558;2022-09-12T06:02:56;11.50;99.90
18948;DHT22;9607;51.600;7.558;2022-09-12T06:05:23;11.60;99.90
18948;DHT22;9607;51.600;7.558;2022-09-12T06:07:51;11.70;99.90
18948;DHT22;9607;51.600;7.558;2022-09-12T06:10:18;11.80;99.90
18948;DHT22;9607;51.600;7.558;2022-09-12T06:12:47;11.90;99.90
18948;DHT22;9607;51.600;7.558;2022-09-12T06:15:14;12.00;99.90
18948;DHT22;9607;51.600;7.558;2022-09-12T06:17:42;12.10;99.90
18948;DHT22;9607;51.600;7.558;2022-09-12T06:20:09;12.20;99.90
18948;DHT22;9607;51.600;7.558;2022-09-12T06:22:36;12.30;99.90
18948;DHT22;9607;51.600;7.558;2022-09-12T06:25:06;12.50;99.90
18948;DHT22;9607;51.600;7.558;2022-09-12T06:27:33;12.60;99.90
18948;DHT22;9607;51.600;7.558;2022-09-12T06:30:00;12.80;99.90
18948;DHT22;9607;51.600;7.558;2022-09-12T06:32:29;13.00;99.90
18948;DHT22;9607;51.600;7.558;2022-09-12T06:34:57;13.10;99.90
18948;DHT22;9607;51.600;7.558;2022-09-12T06:37:24;13.20;99.90
18948;DHT22;9607;51.600;7.558;2022-09-12T06:39:51;13.40;99.90
18948;DHT22;9607;51.600;7.558;2022-09-12T06:42:19;13.50;99.90
18948;DHT22;9607;51.600;7.558;2022-09-12T06:44:46;13.70;99.90
18948;DHT22;9607;51.600;7.558;2022-09-12T06:47:15;13.90;99.90
18948;DHT22;9607;51.600;7.558;2022-09-12T06:49:42;14.00;99.90
18948;DHT22;9607;51.600;7.558;2022-09-12T06:52:08;14.20;99.90
18948;DHT22;9607;51.600;7.558;2022-09-12T06:54:35;14.30;99.90
18948;DHT22;9607;51.600;7.558;2022-09-12T06:57:02;14.40;99.90
18948;DHT22;9607;51.600;7.558;2022-09-12T06:59:31;14.60;99.90
18948;DHT22;9607;51.600;7.558;2022-09-12T07:01:57;14.60;99.90
18948;DHT22;9607;51.600;7.558;2022-09-12T07:04:24;14.80;99.90
18948;DHT22;9607;51.600;7.558;2022-09-12T07:06:52;15.00;99.90
18948;DHT22;9607;51.600;7.558;2022-09-12T07:09:19;15.00;99.90
18948;DHT22;9607;51.600;7.558;2022-09-12T07:11:46;15.10;99.90
18948;DHT22;9607;51.600;7.558;2022-09-12T07:14:13;15.30;99.90
18948;DHT22;9607;51.600;7.558;2022-09-12T07:16:41;15.40;99.90
18948;DHT22;9607;51.600;7.558;2022-09-12T07:19:09;15.50;99.90
18948;DHT22;9607;51.600;7.558;2022-09-12T07:21:36;15.60;99.90
18948;DHT22;9607;51.600;7.558;2022-09-12T07:24:06;15.80;99.90
18948;DHT22;9607;51.600;7.558;2022-09-12T07:26:34;15.90;99.90
18948;DHT22;9607;51.600;7.558;2022-09-12T07:29:01;16.10;99.90
18948;DHT22;9607;51.600;7.558;2022-09-12T07:31:29;16.30;99.90
18948;DHT22;9607;51.600;7.558;2022-09-12T07:33:57;16.50;99.90
18948;DHT22;9607;51.600;7.558;2022-09-12T07:36:24;16.70;99.90
18948;DHT22;9607;51.600;7.558;2022-09-12T07:38:55;16.90;99.90
18948;DHT22;9607;51.600;7.558;2022-09-12T07:41:24;17.20;99.90
18948;DHT22;9607;51.600;7.558;2022-09-12T07:43:52;17.40;99.90
18948;DHT22;9607;51.600;7.558;2022-09-12T07:46:19;17.60;99.90
18948;DHT22;9607;51.600;7.558;2022-09-12T07:48:51;17.80;99.90
18948;DHT22;9607;51.600;7.558;2022-09-12T07:51:19;18.00;99.90
18948;DHT22;9607;51.600;7.558;2022-09-12T07:53:47;18.20;99.90
18948;DHT22;9607;51.600;7.558;2022-09-12T07:56:15;18.30;99.90
18948;DHT22;9607;51.600;7.558;2022-09-12T07:58:42;18.50;99.90
18948;DHT22;9607;51.600;7.558;2022-09-12T08:01:11;18.60;99.90
18948;DHT22;9607;51.600;7.558;2022-09-12T08:03:42;18.70;99.90
18948;DHT22;9607;51.600;7.558;2022-09-12T08:06:11;18.80;99.90
18948;DHT22;9607;51.600;7.558;2022-09-12T08:08:42;18.90;99.90
18948;DHT22;9607;51.600;7.558;2022-09-12T08:11:10;19.00;99.90
18948;DHT22;9607;51.600;7.558;2022-09-12T08:13:39;19.10;99.90
18948;DHT22;9607;51.600;7.558;2022-09-12T08:16:09;19.20;99.90
18948;DHT22;9607;51.600;7.558;2022-09-12T08:18:38;19.30;99.90
18948;DHT22;9607;51.600;7.558;2022-09-12T08:21:07;19.40;99.90
18948;DHT22;9607;51.600;7.558;2022-09-12T08:23:34;19.50;99.90
18948;DHT22;9607;51.600;7.558;2022-09-12T08:26:03;19.60;99.90
18948;DHT22;9607;51.600;7.558;2022-09-12T08:28:32;19.80;99.90
18948;DHT22;9607;51.600;7.558;2022-09-12T08:30:59;19.90;99.90
18948;DHT22;9607;51.600;7.558;2022-09-12T08:33:27;20.00;99.90
18948;DHT22;9607;51.600;7.558;2022-09-12T08:36:02;20.20;99.90
18948;DHT22;9607;51.600;7.558;2022-09-12T08:38:29;20.30;99.90
18948;DHT22;9607;51.600;7.558;2022-09-12T08:41:03;20.40;99.90
18948;DHT22;9607;51.600;7.558;2022-09-12T08:43:43;20.50;99.90
18948;DHT22;9607;51.600;7.558;2022-09-12T08:46:17;20.60;99.90
18948;DHT22;9607;51.600;7.558;2022-09-12T08:48:49;20.70;99.90
18948;DHT22;9607;51.600;7.558;2022-09-12T08:51:18;20.90;99.90
18948;DHT22;9607;51.600;7.558;2022-09-12T08:53:47;21.00;99.90
18948;DHT22;9607;51.600;7.558;2022-09-12T08:56:16;21.10;99.90
18948;DHT22;9607;51.600;7.558;2022-09-12T08:58:44;21.20;99.90
18948;DHT22;9607;51.600;7.558;2022-09-12T09:01:20;21.20;99.90
18948;DHT22;9607;51.600;7.558;2022-09-12T09:09:50;21.50;99.90
18948;DHT22;9607;51.600;7.558;2022-09-12T09:12:25;21.50;99.90
18948;DHT22;9607;51.600;7.558;2022-09-12T09:15:16;21.60;99.90
18948;DHT22;9607;51.600;7.558;2022-09-12T09:17:50;21.60;99.90
18948;DHT22;9607;51.600;7.558;2022-09-12T09:20:25;21.60;99.90
18948;DHT22;9607;51.600;7.558;2022-09-12T09:22:57;21.70;99.90
18948;DHT22;9607;51.600;7.558;2022-09-12T09:25:37;21.70;99.90
18948;DHT22;9607;51.600;7.558;2022-09-12T09:28:13;21.80;99.90
18948;DHT22;9607;51.600;7.558;2022-09-12T09:30:43;21.90;99.90
18948;DHT22;9607;51.600;7.558;2022-09-12T09:33:17;22.00;99.90
18948;DHT22;9607;51.600;7.558;2022-09-12T09:35:46;22.10;99.90
18948;DHT22;9607;51.600;7.558;2022-09-12T09:38:22;22.20;99.90
18948;DHT22;9607;51.600;7.558;2022-09-12T09:41:02;22.30;99.90
18948;DHT22;9607;51.600;7.558;2022-09-12T09:43:32;22.30;99.90
18948;DHT22;9607;51.600;7.558;2022-09-12T09:45:59;22.40;99.90
18948;DHT22;9607;51.600;7.558;2022-09-12T09:48:27;22.40;99.90
18948;DHT22;9607;51.600;7.558;2022-09-12T09:50:58;22.30;99.90
18948;DHT22;9607;51.600;7.558;2022-09-12T09:53:35;22.30;99.90
18948;DHT22;9607;51.600;7.558;2022-09-12T09:56:08;22.30;99.90
18948;DHT22;9607;51.600;7.558;2022-09-12T09:58:39;22.30;99.90
18948;DHT22;9607;51.600;7.558;2022-09-12T10:01:13;22.40;99.90
18948;DHT22;9607;51.600;7.558;2022-09-12T10:03:47;22.50;99.90
18948;DHT22;9607;51.600;7.558;2022-09-12T10:06:24;22.70;99.90
18948;DHT22;9607;51.600;7.558;2022-09-12T10:08:51;22.80;99.90
18948;DHT22;9607;51.600;7.558;2022-09-12T10:11:29;22.90;99.90
18948;DHT22;9607;51.600;7.558;2022-09-12T10:13:59;23.00;99.90
18948;DHT22;9607;51.600;7.558;2022-09-12T10:16:27;23.00;99.90
18948;DHT22;9607;51.600;7.558;2022-09-12T10:18:56;22.90;99.90
18948;DHT22;9607;51.600;7.558;2022-09-12T10:21:29;22.70;99.90
18948;DHT22;9607;51.600;7.558;2022-09-12T10:24:00;22.60;99.90
18948;DHT22;9607;51.600;7.558;2022-09-12T10:26:33;22.50;99.90
18948;DHT22;9607;51.600;7.558;2022-09-12T10:29:09;22.40;99.90
18948;DHT22;9607;51.600;7.558;2022-09-12T10:31:48;22.40;99.90
18948;DHT22;9607;51.600;7.558;2022-09-12T10:34:33;22.40;99.90
18948;DHT22;9607;51.600;7.558;2022-09-12T10:37:05;22.30;99.90
18948;DHT22;9607;51.600;7.558;2022-09-12T10:39:34;22.20;99.90
18948;DHT22;9607;51.600;7.558;2022-09-12T10:42:02;22.20;99.90
18948;DHT22;9607;51.600;7.558;2022-09-12T10:44:32;22.10;99.90
18948;DHT22;9607;51.600;7.558;2022-09-12T10:47:20;22.10;99.90
18948;DHT22;9607;51.600;7.558;2022-09-12T10:49:47;22.00;99.90
18948;DHT22;9607;51.600;7.558;2022-09-12T10:52:17;22.00;99.90
18948;DHT22;9607;51.600;7.558;2022-09-12T10:54:46;22.00;99.90
18948;DHT22;9607;51.600;7.558;2022-09-12T11:00:14;22.00;99.90
18948;DHT22;9607;51.600;7.558;2022-09-12T11:02:50;22.10;99.90
18948;DHT22;9607;51.600;7.558;2022-09-12T11:05:29;22.10;99.90
18948;DHT22;9607;51.600;7.558;2022-09-12T11:08:10;22.20;99.90
18948;DHT22;9607;51.600;7.558;2022-09-12T11:10:50;22.20;99.90
18948;DHT22;9607;51.600;7.558;2022-09-12T11:13:32;22.30;99.90
18948;DHT22;9607;51.600;7.558;2022-09-12T11:16:15;22.40;99.90
18948;DHT22;9607;51.600;7.558;2022-09-12T11:19:06;22.50;99.90
18948;DHT22;9607;51.600;7.558;2022-09-12T11:27:42;22.80;99.90
18948;DHT22;9607;51.600;7.558;2022-09-12T11:30:15;22.90;99.90
18948;DHT22;9607;51.600;7.558;2022-09-12T11:35:31;23.00;99.90
18948;DHT22;9607;51.600;7.558;2022-09-12T11:38:11;23.00;99.90
18948;DHT22;9607;51.600;7.558;2022-09-12T11:40:42;23.00;98.90
18948;DHT22;9607;51.600;7.558;2022-09-12T11:43:24;23.00;99.00
18948;DHT22;9607;51.600;7.558;2022-09-12T11:45:53;23.20;99.70
18948;DHT22;9607;51.600;7.558;2022-09-12T11:48:33;23.30;99.90
18948;DHT22;9607;51.600;7.558;2022-09-12T11:51:04;23.40;99.70
18948;DHT22;9607;51.600;7.558;2022-09-12T11:53:35;23.40;99.60
18948;DHT22;9607;51.600;7.558;2022-09-12T11:56:09;23.60;99.20
18948;DHT22;9607;51.600;7.558;2022-09-12T11:58:40;23.60;99.60
18948;DHT22;9607;51.600;7.558;2022-09-12T12:01:12;23.70;99.50
18948;DHT22;9607;51.600;7.558;2022-09-12T12:03:43;23.80;99.50
18948;DHT22;9607;51.600;7.558;2022-09-12T12:06:12;23.90;98.30
18948;DHT22;9607;51.600;7.558;2022-09-12T12:08:44;23.90;98.00
18948;DHT22;9607;51.600;7.558;2022-09-12T12:11:13;23.90;98.10
18948;DHT22;9607;51.600;7.558;2022-09-12T12:13:45;24.10;97.60
18948;DHT22;9607;51.600;7.558;2022-09-12T12:16:18;24.30;96.70
18948;DHT22;9607;51.600;7.558;2022-09-12T12:18:52;24.60;95.90
18948;DHT22;9607;51.600;7.558;2022-09-12T12:21:36;24.70;95.20
18948;DHT22;9607;51.600;7.558;2022-09-12T12:24:14;24.70;95.20
18948;DHT22;9607;51.600;7.558;2022-09-12T12:26:44;24.70;95.40
18948;DHT22;9607;51.600;7.558;2022-09-12T12:29:35;24.70;95.40
18948;DHT22;9607;51.600;7.558;2022-09-12T12:32:22;24.70;94.00
18948;DHT22;9607;51.600;7.558;2022-09-12T12:35:01;24.70;93.80
18948;DHT22;9607;51.600;7.558;2022-09-12T12:37:51;24.70;93.30
18948;DHT22;9607;51.600;7.558;2022-09-12T12:40:23;24.70;92.00
18948;DHT22;9607;51.600;7.558;2022-09-12T12:46:10;24.50;90.40
18948;DHT22;9607;51.600;7.558;2022-09-12T12:48:57;24.60;91.80
18948;DHT22;9607;51.600;7.558;2022-09-12T12:54:47;24.70;90.20
18948;DHT22;9607;51.600;7.558;2022-09-12T12:57:25;24.70;88.30
18948;DHT22;9607;51.600;7.558;2022-09-12T12:59:55;24.70;86.70
18948;DHT22;9607;51.600;7.558;2022-09-12T13:02:27;24.70;86.60
18948;DHT22;9607;51.600;7.558;2022-09-12T13:04:57;24.70;86.50
18948;DHT22;9607;51.600;7.558;2022-09-12T13:07:32;24.80;87.30
18948;DHT22;9607;51.600;7.558;2022-09-12T13:10:00;24.90;86.90
18948;DHT22;9607;51.600;7.558;2022-09-12T13:12:30;25.00;86.50
18948;DHT22;9607;51.600;7.558;2022-09-12T13:15:00;25.10;85.30
18948;DHT22;9607;51.600;7.558;2022-09-12T13:17:32;25.20;83.90
18948;DHT22;9607;51.600;7.558;2022-09-12T13:20:16;25.20;84.70
18948;DHT22;9607;51.600;7.558;2022-09-12T13:22:47;25.30;84.60
18948;DHT22;9607;51.600;7.558;2022-09-12T13:25:26;25.40;85.90
18948;DHT22;9607;51.600;7.558;2022-09-12T13:28:15;25.60;84.80
18948;DHT22;9607;51.600;7.558;2022-09-12T13:30:45;25.70;82.20
18948;DHT22;9607;51.600;7.558;2022-09-12T13:33:20;25.90;81.30
18948;DHT22;9607;51.600;7.558;2022-09-12T13:36:22;25.90;79.70
18948;DHT22;9607;51.600;7.558;2022-09-12T13:39:01;26.00;79.60
18948;DHT22;9607;51.600;7.558;2022-09-12T13:44:23;26.10;77.10
18948;DHT22;9607;51.600;7.558;2022-09-12T13:46:51;26.20;75.90
18948;DHT22;9607;51.600;7.558;2022-09-12T13:49:21;26.30;76.00
18948;DHT22;9607;51.600;7.558;2022-09-12T13:51:57;26.50;75.60
18948;DHT22;9607;51.600;7.558;2022-09-12T13:54:27;26.60;75.20
18948;DHT22;9607;51.600;7.558;2022-09-12T13:56:54;26.70;74.20
18948;DHT22;9607;51.600;7.558;2022-09-12T13:59:21;26.80;73.90
18948;DHT22;9607;51.600;7.558;2022-09-12T14:01:48;27.00;72.70
18948;DHT22;9607;51.600;7.558;2022-09-12T14:04:18;27.10;71.30
18948;DHT22;9607;51.600;7.558;2022-09-12T14:07:10;27.20;70.00
18948;DHT22;9607;51.600;7.558;2022-09-12T14:09:41;27.30;68.80
18948;DHT22;9607;51.600;7.558;2022-09-12T14:12:16;27.30;67.70
18948;DHT22;9607;51.600;7.558;2022-09-12T14:14:47;27.40;68.40
18948;DHT22;9607;51.600;7.558;2022-09-12T14:17:16;27.40;65.80
18948;DHT22;9607;51.600;7.558;2022-09-12T14:19:44;27.40;65.70
18948;DHT22;9607;51.600;7.558;2022-09-12T14:22:12;27.50;65.60
18948;DHT22;9607;51.600;7.558;2022-09-12T14:24:44;27.50;64.20
18948;DHT22;9607;51.600;7.558;2022-09-12T14:27:17;27.50;63.60
18948;DHT22;9607;51.600;7.558;2022-09-12T14:29:46;27.60;65.20
18948;DHT22;9607;51.600;7.558;2022-09-12T14:32:21;27.70;63.80
18948;DHT22;9607;51.600;7.558;2022-09-12T14:35:05;27.80;63.70
18948;DHT22;9607;51.600;7.558;2022-09-12T14:37:32;27.80;63.20
18948;DHT22;9607;51.600;7.558;2022-09-12T14:40:01;27.90;63.10
18948;DHT22;9607;51.600;7.558;2022-09-12T14:42:31;28.00;62.90
18948;DHT22;9607;51.600;7.558;2022-09-12T14:45:01;28.00;62.00
18948;DHT22;9607;51.600;7.558;2022-09-12T14:47:37;28.10;60.20
18948;DHT22;9607;51.600;7.558;2022-09-12T14:50:14;28.10;59.90
18948;DHT22;9607;51.600;7.558;2022-09-12T14:52:42;28.10;58.70
18948;DHT22;9607;51.600;7.558;2022-09-12T14:55:26;28.20;59.10
18948;DHT22;9607;51.600;7.558;2022-09-12T14:58:08;28.20;59.50
18948;DHT22;9607;51.600;7.558;2022-09-12T15:00:51;28.20;58.00
18948;DHT22;9607;51.600;7.558;2022-09-12T15:03:25;28.20;56.60
18948;DHT22;9607;51.600;7.558;2022-09-12T15:05:52;28.20;57.10
18948;DHT22;9607;51.600;7.558;2022-09-12T15:08:19;28.20;58.10
18948;DHT22;9607;51.600;7.558;2022-09-12T15:10:48;28.20;57.80
18948;DHT22;9607;51.600;7.558;2022-09-12T15:13:17;28.20;58.30
18948;DHT22;9607;51.600;7.558;2022-09-12T15:15:46;28.20;57.10
18948;DHT22;9607;51.600;7.558;2022-09-12T15:18:14;28.30;56.90
18948;DHT22;9607;51.600;7.558;2022-09-12T15:20:42;28.40;57.20
18948;DHT22;9607;51.600;7.558;2022-09-12T15:23:17;28.50;57.20
18948;DHT22;9607;51.600;7.558;2022-09-12T15:25:45;28.60;57.00
18948;DHT22;9607;51.600;7.558;2022-09-12T15:28:17;28.80;56.60
18948;DHT22;9607;51.600;7.558;2022-09-12T15:30:45;29.00;57.30
18948;DHT22;9607;51.600;7.558;2022-09-12T15:33:15;29.20;56.80
18948;DHT22;9607;51.600;7.558;2022-09-12T15:35:42;29.40;55.80
18948;DHT22;9607;51.600;7.558;2022-09-12T15:38:08;30.00;54.30
18948;DHT22;9607;51.600;7.558;2022-09-12T15:40:35;30.80;53.30
18948;DHT22;9607;51.600;7.558;2022-09-12T15:43:02;31.60;52.00
18948;DHT22;9607;51.600;7.558;2022-09-12T15:45:31;32.20;50.90
18948;DHT22;9607;51.600;7.558;2022-09-12T15:47:59;32.70;50.40
18948;DHT22;9607;51.600;7.558;2022-09-12T15:50:27;33.20;50.20
18948;DHT22;9607;51.600;7.558;2022-09-12T15:52:54;33.80;48.70
18948;DHT22;9607;51.600;7.558;2022-09-12T15:55:23;34.30;47.40
18948;DHT22;9607;51.600;7.558;2022-09-12T15:57:50;34.90;45.70
18948;DHT22;9607;51.600;7.558;2022-09-12T16:00:18;35.50;44.90
18948;DHT22;9607;51.600;7.558;2022-09-12T16:02:48;36.40;43.60
18948;DHT22;9607;51.600;7.558;2022-09-12T16:05:17;37.10;41.90
18948;DHT22;9607;51.600;7.558;2022-09-12T16:07:45;37.50;41.10
18948;DHT22;9607;51.600;7.558;2022-09-12T16:10:14;37.90;39.80
18948;DHT22;9607;51.600;7.558;2022-09-12T16:12:42;38.00;39.10
18948;DHT22;9607;51.600;7.558;2022-09-12T16:15:12;38.10;38.10
18948;DHT22;9607;51.600;7.558;2022-09-12T16:17:39;38.10;38.10
18948;DHT22;9607;51.600;7.558;2022-09-12T16:20:09;38.30;38.00
18948;DHT22;9607;51.600;7.558;2022-09-12T16:22:36;38.60;36.80
18948;DHT22;9607;51.600;7.558;2022-09-12T16:25:04;38.60;36.00
18948;DHT22;9607;51.600;7.558;2022-09-12T16:27:31;38.30;36.00
18948;DHT22;9607;51.600;7.558;2022-09-12T16:29:58;37.70;36.40
18948;DHT22;9607;51.600;7.558;2022-09-12T16:32:25;37.00;37.40
18948;DHT22;9607;51.600;7.558;2022-09-12T16:34:52;36.10;38.10
18948;DHT22;9607;51.600;7.558;2022-09-12T16:37:20;35.20;39.30
18948;DHT22;9607;51.600;7.558;2022-09-12T16:39:47;34.20;40.60